sensor_id;sensor_type;location;lat;lon;timestamp;P1;durP1;ratioP1;P2;durP2;ratioP2
7199;SDS011;3641;49.082;8.200;2024-02-04T00:00:39;9.90;;;5.60;;
7199;SDS011;3641;49.082;8.200;2024-02-04T00:03:07;10.52;;;6.20;;
7199;SDS011;3641;49.082;8.200;2024-02-04T00:05:33;12.00;;;7.45;;
7199;SDS011;3641;49.082;8.200;2024-02-04T00:08:00;10.18;;;6.47;;
7199;SDS011;3641;49.082;8.200;2024-02-04T00:10:27;10.13;;;6.63;;
7199;SDS011;3641;49.082;8.200;2024-02-04T00:12:54;10.20;;;6.28;;
7199;SDS011;3641;49.082;8.200;2024-02-04T00:15:21;9.68;;;6.50;;
7199;SDS011;3641;49.082;8.200;2024-02-04T00:17:47;10.70;;;6.30;;
7199;SDS011;3641;49.082;8.200;2024-02-04T00:20:15;12.07;;;5.90;;
7199;SDS011;3641;49.082;8.200;2024-02-04T00:22:42;13.77;;;5.72;;
7199;SDS011;3641;49.082;8.200;2024-02-04T00:25:08;9.20;;;5.88;;
7199;SDS011;3641;49.082;8.200;2024-02-04T00:27:36;9.82;;;6.38;;
7199;SDS011;3641;49.082;8.200;2024-02-04T00:30:04;12.27;;;6.43;;
7199;SDS011;3641;49.082;8.200;2024-02-04T00:32:31;10.07;;;6.45;;
7199;SDS011;3641;49.082;8.200;2024-02-04T00:34:57;10.23;;;6.13;;
7199;SDS011;3641;49.082;8.200;2024-02-04T00:37:25;11.40;;;6.18;;
7199;SDS011;3641;49.082;8.200;2024-02-04T00:39:52;12.50;;;6.35;;
7199;SDS011;3641;49.082;8.200;2024-02-04T00:42:18;10.75;;;6.03;;
7199;SDS011;3641;49.082;8.200;2024-02-04T00:44:45;9.07;;;6.15;;
7199;SDS011;3641;49.082;8.200;2024-02-04T00:47:11;11.35;;;6.18;;
7199;SDS011;3641;49.082;8.200;2024-02-04T00:49:38;13.75;;;6.35;;
7199;SDS011;3641;49.082;8.200;2024-02-04T00:52:05;11.60;;;6.57;;
7199;SDS011;3641;49.082;8.200;2024-02-04T00:54:33;10.77;;;6.40;;
7199;SDS011;3641;49.082;8.200;2024-02-04T00:56:59;10.85;;;6.28;;
7199;SDS011;3641;49.082;8.200;2024-02-04T00:59:26;9.75;;;5.68;;
7199;SDS011;3641;49.082;8.200;2024-02-04T01:01:52;11.55;;;6.10;;
7199;SDS011;3641;49.082;8.200;2024-02-04T01:04:20;8.90;;;5.70;;
7199;SDS011;3641;49.082;8.200;2024-02-04T01:06:48;12.73;;;6.25;;
7199;SDS011;3641;49.082;8.200;2024-02-04T01:09:14;10.20;;;6.03;;
7199;SDS011;3641;49.082;8.200;2024-02-04T01:11:42;10.77;;;5.63;;
7199;SDS011;3641;49.082;8.200;2024-02-04T01:14:08;9.88;;;6.03;;
7199;SDS011;3641;49.082;8.200;2024-02-04T01:16:35;9.63;;;5.57;;
7199;SDS011;3641;49.082;8.200;2024-02-04T01:19:01;9.38;;;4.95;;
7199;SDS011;3641;49.082;8.200;2024-02-04T01:21:27;10.10;;;5.38;;
7199;SDS011;3641;49.082;8.200;2024-02-04T01:23:54;8.98;;;5.25;;
7199;SDS011;3641;49.082;8.200;2024-02-04T01:26:20;7.90;;;4.70;;
7199;SDS011;3641;49.082;8.200;2024-02-04T01:28:49;8.00;;;5.28;;
7199;SDS011;3641;49.082;8.200;2024-02-04T01:31:16;7.88;;;5.13;;
7199;SDS011;3641;49.082;8.200;2024-02-04T01:33:42;9.90;;;5.32;;
7199;SDS011;3641;49.082;8.200;2024-02-04T01:36:09;10.95;;;4.90;;
7199;SDS011;3641;49.082;8.200;2024-02-04T01:38:35;9.07;;;5.50;;
7199;SDS011;3641;49.082;8.200;2024-02-04T01:41:02;9.88;;;4.88;;
7199;SDS011;3641;49.082;8.200;2024-02-04T01:43:28;9.07;;;5.05;;
7199;SDS011;3641;49.082;8.200;2024-02-04T01:45:57;7.75;;;4.90;;
7199;SDS011;3641;49.082;8.200;2024-02-04T01:48:24;7.95;;;4.55;;
7199;SDS011;3641;49.082;8.200;2024-02-04T01:50:51;9.02;;;5.50;;
7199;SDS011;3641;49.082;8.200;2024-02-04T01:53:21;9.23;;;4.70;;
7199;SDS011;3641;49.082;8.200;2024-02-04T01:55:49;7.55;;;4.70;;
7199;SDS011;3641;49.082;8.200;2024-02-04T01:58:15;8.70;;;4.70;;
7199;SDS011;3641;49.082;8.200;2024-02-04T02:00:42;8.95;;;4.95;;
7199;SDS011;3641;49.082;8.200;2024-02-04T02:03:11;7.50;;;4.38;;
7199;SDS011;3641;49.082;8.200;2024-02-04T02:05:39;8.13;;;4.55;;
7199;SDS011;3641;49.082;8.200;2024-02-04T02:08:06;8.65;;;5.07;;
7199;SDS011;3641;49.082;8.200;2024-02-04T02:10:32;8.43;;;4.72;;
7199;SDS011;3641;49.082;8.200;2024-02-04T02:12:59;7.68;;;4.30;;
7199;SDS011;3641;49.082;8.200;2024-02-04T02:15:31;6.85;;;4.15;;
7199;SDS011;3641;49.082;8.200;2024-02-04T02:18:05;8.18;;;4.18;;
7199;SDS011;3641;49.082;8.200;2024-02-04T02:20:41;7.07;;;4.10;;
7199;SDS011;3641;49.082;8.200;2024-02-04T02:23:21;7.68;;;4.13;;
7199;SDS011;3641;49.082;8.200;2024-02-04T02:25:53;8.48;;;4.18;;
7199;SDS011;3641;49.082;8.200;2024-02-04T02:28:22;6.45;;;3.50;;
7199;SDS011;3641;49.082;8.200;2024-02-04T02:30:48;6.43;;;3.80;;
7199;SDS011;3641;49.082;8.200;2024-02-04T02:33:15;6.28;;;3.60;;
7199;SDS011;3641;49.082;8.200;2024-02-04T02:35:41;8.23;;;4.00;;
7199;SDS011;3641;49.082;8.200;2024-02-04T02:38:14;5.72;;;3.42;;
7199;SDS011;3641;49.082;8.200;2024-02-04T02:40:51;7.10;;;3.70;;
7199;SDS011;3641;49.082;8.200;2024-02-04T02:43:24;6.00;;;3.67;;
7199;SDS011;3641;49.082;8.200;2024-02-04T02:45:51;5.65;;;3.38;;
7199;SDS011;3641;49.082;8.200;2024-02-04T02:48:18;6.55;;;3.17;;
7199;SDS011;3641;49.082;8.200;2024-02-04T02:50:45;8.48;;;3.55;;
7199;SDS011;3641;49.082;8.200;2024-02-04T02:53:11;6.82;;;3.20;;
7199;SDS011;3641;49.082;8.200;2024-02-04T02:55:38;6.10;;;3.42;;
7199;SDS011;3641;49.082;8.200;2024-02-04T02:58:07;6.10;;;3.30;;
7199;SDS011;3641;49.082;8.200;2024-02-04T03:00:33;6.85;;;3.65;;
7199;SDS011;3641;49.082;8.200;2024-02-04T03:03:00;5.70;;;3.30;;
7199;SDS011;3641;49.082;8.200;2024-02-04T03:05:26;6.25;;;3.80;;
7199;SDS011;3641;49.082;8.200;2024-02-04T03:07:52;5.45;;;3.22;;
7199;SDS011;3641;49.082;8.200;2024-02-04T03:10:19;7.57;;;3.50;;
7199;SDS011;3641;49.082;8.200;2024-02-04T03:12:45;7.32;;;3.97;;
7199;SDS011;3641;49.082;8.200;2024-02-04T03:15:13;7.22;;;2.90;;
7199;SDS011;3641;49.082;8.200;2024-02-04T03:17:39;5.18;;;3.28;;
7199;SDS011;3641;49.082;8.200;2024-02-04T03:20:06;6.82;;;3.38;;
7199;SDS011;3641;49.082;8.200;2024-02-04T03:22:33;6.10;;;3.30;;
7199;SDS011;3641;49.082;8.200;2024-02-04T03:25:00;5.65;;;3.38;;
7199;SDS011;3641;49.082;8.200;2024-02-04T03:27:26;6.90;;;3.05;;
7199;SDS011;3641;49.082;8.200;2024-02-04T03:29:52;5.10;;;3.10;;
7199;SDS011;3641;49.082;8.200;2024-02-04T03:32:20;6.18;;;3.25;;
7199;SDS011;3641;49.082;8.200;2024-02-04T03:34:47;6.00;;;2.70;;
7199;SDS011;3641;49.082;8.200;2024-02-04T03:37:13;5.03;;;3.00;;
7199;SDS011;3641;49.082;8.200;2024-02-04T03:39:39;6.38;;;3.25;;
7199;SDS011;3641;49.082;8.200;2024-02-04T03:42:06;5.38;;;3.20;;
7199;SDS011;3641;49.082;8.200;2024-02-04T03:44:32;5.00;;;3.15;;
7199;SDS011;3641;49.082;8.200;2024-02-04T03:46:59;4.85;;;2.58;;
7199;SDS011;3641;49.082;8.200;2024-02-04T03:49:29;4.80;;;2.92;;
7199;SDS011;3641;49.082;8.200;2024-02-04T03:51:55;6.47;;;2.88;;
7199;SDS011;3641;49.082;8.200;2024-02-04T03:54:22;4.60;;;2.65;;
7199;SDS011;3641;49.082;8.200;2024-02-04T03:56:49;4.82;;;2.60;;
7199;SDS011;3641;49.082;8.200;2024-02-04T03:59:15;5.15;;;2.97;;
7199;SDS011;3641;49.082;8.200;2024-02-04T04:01:46;5.55;;;2.90;;
7199;SDS011;3641;49.082;8.200;2024-02-04T04:04:13;7.13;;;3.20;;
7199;SDS011;3641;49.082;8.200;2024-02-04T04:06:41;4.60;;;3.10;;
7199;SDS011;3641;49.082;8.200;2024-02-04T04:09:08;4.95;;;2.60;;
7199;SDS011;3641;49.082;8.200;2024-02-04T04:11:35;4.13;;;2.60;;
7199;SDS011;3641;49.082;8.200;2024-02-04T04:14:02;5.95;;;2.85;;
7199;SDS011;3641;49.082;8.200;2024-02-04T04:16:28;4.75;;;2.33;;
7199;SDS011;3641;49.082;8.200;2024-02-04T04:18:55;3.72;;;2.33;;
7199;SDS011;3641;49.082;8.200;2024-02-04T04:21:23;3.95;;;2.58;;
7199;SDS011;3641;49.082;8.200;2024-02-04T04:23:51;5.82;;;2.50;;
7199;SDS011;3641;49.082;8.200;2024-02-04T04:26:17;4.50;;;2.38;;
7199;SDS011;3641;49.082;8.200;2024-02-04T04:28:44;4.40;;;2.28;;
7199;SDS011;3641;49.082;8.200;2024-02-04T04:31:10;3.88;;;2.30;;
7199;SDS011;3641;49.082;8.200;2024-02-04T04:33:36;5.45;;;2.78;;
7199;SDS011;3641;49.082;8.200;2024-02-04T04:36:03;6.20;;;2.30;;
7199;SDS011;3641;49.082;8.200;2024-02-04T04:38:30;4.35;;;2.65;;
7199;SDS011;3641;49.082;8.200;2024-02-04T04:40:58;4.28;;;2.45;;
7199;SDS011;3641;49.082;8.200;2024-02-04T04:43:24;4.93;;;2.67;;
7199;SDS011;3641;49.082;8.200;2024-02-04T04:45:52;4.03;;;2.40;;
7199;SDS011;3641;49.082;8.200;2024-02-04T04:48:18;4.05;;;2.65;;
7199;SDS011;3641;49.082;8.200;2024-02-04T04:50:44;5.50;;;2.40;;
7199;SDS011;3641;49.082;8.200;2024-02-04T04:53:11;6.18;;;2.75;;
7199;SDS011;3641;49.082;8.200;2024-02-04T04:55:38;4.75;;;2.70;;
7199;SDS011;3641;49.082;8.200;2024-02-04T04:58:05;4.28;;;2.58;;
7199;SDS011;3641;49.082;8.200;2024-02-04T05:00:32;4.55;;;2.40;;
7199;SDS011;3641;49.082;8.200;2024-02-04T05:02:58;3.88;;;2.38;;
7199;SDS011;3641;49.082;8.200;2024-02-04T05:05:24;5.22;;;2.72;;
7199;SDS011;3641;49.082;8.200;2024-02-04T05:07:51;5.57;;;2.92;;
7199;SDS011;3641;49.082;8.200;2024-02-04T05:10:17;4.88;;;2.63;;
7199;SDS011;3641;49.082;8.200;2024-02-04T05:12:44;4.53;;;2.65;;
7199;SDS011;3641;49.082;8.200;2024-02-04T05:15:12;4.50;;;2.95;;
7199;SDS011;3641;49.082;8.200;2024-02-04T05:17:38;5.07;;;3.10;;
7199;SDS011;3641;49.082;8.200;2024-02-04T05:20:05;7.15;;;2.80;;
7199;SDS011;3641;49.082;8.200;2024-02-04T05:22:32;4.20;;;2.80;;
7199;SDS011;3641;49.082;8.200;2024-02-04T05:24:59;5.82;;;2.70;;
7199;SDS011;3641;49.082;8.200;2024-02-04T05:27:26;5.78;;;2.50;;
7199;SDS011;3641;49.082;8.200;2024-02-04T05:29:52;6.00;;;2.58;;
7199;SDS011;3641;49.082;8.200;2024-02-04T05:32:20;5.97;;;2.75;;
7199;SDS011;3641;49.082;8.200;2024-02-04T05:34:46;4.07;;;2.60;;
7199;SDS011;3641;49.082;8.200;2024-02-04T05:37:13;5.03;;;2.78;;
7199;SDS011;3641;49.082;8.200;2024-02-04T05:39:39;4.80;;;2.92;;
7199;SDS011;3641;49.082;8.200;2024-02-04T05:42:06;7.15;;;3.08;;
7199;SDS011;3641;49.082;8.200;2024-02-04T05:44:32;4.78;;;2.78;;
7199;SDS011;3641;49.082;8.200;2024-02-04T05:46:59;4.88;;;2.67;;
7199;SDS011;3641;49.082;8.200;2024-02-04T05:49:26;5.65;;;2.63;;
7199;SDS011;3641;49.082;8.200;2024-02-04T05:51:53;5.43;;;3.00;;
7199;SDS011;3641;49.082;8.200;2024-02-04T05:54:19;4.97;;;2.85;;
7199;SDS011;3641;49.082;8.200;2024-02-04T05:56:46;6.07;;;3.00;;
7199;SDS011;3641;49.082;8.200;2024-02-04T05:59:12;5.97;;;3.25;;
7199;SDS011;3641;49.082;8.200;2024-02-04T06:01:40;5.55;;;3.28;;
7199;SDS011;3641;49.082;8.200;2024-02-04T06:04:07;5.30;;;3.20;;
7199;SDS011;3641;49.082;8.200;2024-02-04T06:06:35;7.60;;;3.22;;
7199;SDS011;3641;49.082;8.200;2024-02-04T06:09:01;5.65;;;3.10;;
7199;SDS011;3641;49.082;8.200;2024-02-04T06:11:28;6.10;;;3.40;;
7199;SDS011;3641;49.082;8.200;2024-02-04T06:13:55;7.50;;;3.50;;
7199;SDS011;3641;49.082;8.200;2024-02-04T06:16:21;5.95;;;3.75;;
7199;SDS011;3641;49.082;8.200;2024-02-04T06:18:47;5.72;;;3.60;;
7199;SDS011;3641;49.082;8.200;2024-02-04T06:21:14;6.55;;;3.80;;
7199;SDS011;3641;49.082;8.200;2024-02-04T06:23:42;5.95;;;3.80;;
7199;SDS011;3641;49.082;8.200;2024-02-04T06:26:09;7.00;;;3.65;;
7199;SDS011;3641;49.082;8.200;2024-02-04T06:28:35;7.30;;;4.07;;
7199;SDS011;3641;49.082;8.200;2024-02-04T06:31:02;8.07;;;3.70;;
7199;SDS011;3641;49.082;8.200;2024-02-04T06:33:28;7.65;;;4.20;;
7199;SDS011;3641;49.082;8.200;2024-02-04T06:35:55;7.22;;;3.90;;
7199;SDS011;3641;49.082;8.200;2024-02-04T06:38:21;9.75;;;4.68;;
7199;SDS011;3641;49.082;8.200;2024-02-04T06:40:49;6.80;;;3.90;;
7199;SDS011;3641;49.082;8.200;2024-02-04T06:43:16;7.43;;;4.10;;
7199;SDS011;3641;49.082;8.200;2024-02-04T06:45:42;8.35;;;4.70;;
7199;SDS011;3641;49.082;8.200;2024-02-04T06:48:08;8.00;;;4.53;;
7199;SDS011;3641;49.082;8.200;2024-02-04T06:50:35;6.78;;;3.80;;
7199;SDS011;3641;49.082;8.200;2024-02-04T06:53:01;6.43;;;3.92;;
7199;SDS011;3641;49.082;8.200;2024-02-04T06:55:28;7.78;;;3.83;;
7199;SDS011;3641;49.082;8.200;2024-02-04T06:57:56;7.18;;;4.05;;
7199;SDS011;3641;49.082;8.200;2024-02-04T07:00:22;7.75;;;4.13;;
7199;SDS011;3641;49.082;8.200;2024-02-04T07:02:48;7.18;;;4.10;;
7199;SDS011;3641;49.082;8.200;2024-02-04T07:05:15;7.95;;;4.20;;
7199;SDS011;3641;49.082;8.200;2024-02-04T07:07:41;7.18;;;3.75;;
7199;SDS011;3641;49.082;8.200;2024-02-04T07:10:08;8.25;;;4.20;;
7199;SDS011;3641;49.082;8.200;2024-02-04T07:12:35;7.03;;;4.20;;
7199;SDS011;3641;49.082;8.200;2024-02-04T07:15:03;6.60;;;3.63;;
7199;SDS011;3641;49.082;8.200;2024-02-04T07:17:29;6.93;;;3.80;;
7199;SDS011;3641;49.082;8.200;2024-02-04T07:19:56;7.05;;;3.50;;
7199;SDS011;3641;49.082;8.200;2024-02-04T07:22:22;5.90;;;3.20;;
7199;SDS011;3641;49.082;8.200;2024-02-04T07:24:49;5.82;;;3.65;;
7199;SDS011;3641;49.082;8.200;2024-02-04T07:27:15;5.93;;;3.47;;
7199;SDS011;3641;49.082;8.200;2024-02-04T07:29:42;6.75;;;3.50;;
7199;SDS011;3641;49.082;8.200;2024-02-04T07:32:09;8.40;;;3.30;;
7199;SDS011;3641;49.082;8.200;2024-02-04T07:34:36;6.93;;;3.30;;
7199;SDS011;3641;49.082;8.200;2024-02-04T07:37:02;6.03;;;3.70;;
7199;SDS011;3641;49.082;8.200;2024-02-04T07:39:29;6.15;;;3.35;;
7199;SDS011;3641;49.082;8.200;2024-02-04T07:41:56;6.35;;;3.28;;
7199;SDS011;3641;49.082;8.200;2024-02-04T07:44:25;6.03;;;3.05;;
7199;SDS011;3641;49.082;8.200;2024-02-04T07:46:51;5.82;;;3.10;;
7199;SDS011;3641;49.082;8.200;2024-02-04T07:49:19;5.32;;;2.92;;
7199;SDS011;3641;49.082;8.200;2024-02-04T07:51:46;6.32;;;3.15;;
7199;SDS011;3641;49.082;8.200;2024-02-04T07:54:12;5.97;;;2.97;;
7199;SDS011;3641;49.082;8.200;2024-02-04T07:56:38;3.95;;;2.60;;
7199;SDS011;3641;49.082;8.200;2024-02-04T07:59:05;5.25;;;2.70;;
7199;SDS011;3641;49.082;8.200;2024-02-04T08:01:31;4.20;;;2.58;;
7199;SDS011;3641;49.082;8.200;2024-02-04T08:03:58;4.63;;;2.72;;
7199;SDS011;3641;49.082;8.200;2024-02-04T08:06:26;5.55;;;2.83;;
7199;SDS011;3641;49.082;8.200;2024-02-04T08:08:52;6.40;;;2.95;;
7199;SDS011;3641;49.082;8.200;2024-02-04T08:11:18;5.43;;;2.53;;
7199;SDS011;3641;49.082;8.200;2024-02-04T08:13:46;4.70;;;2.50;;
7199;SDS011;3641;49.082;8.200;2024-02-04T08:16:13;3.08;;;2.08;;
7199;SDS011;3641;49.082;8.200;2024-02-04T08:18:39;4.45;;;2.55;;
7199;SDS011;3641;49.082;8.200;2024-02-04T08:21:05;3.58;;;2.38;;
7199;SDS011;3641;49.082;8.200;2024-02-04T08:23:33;5.38;;;2.42;;
7199;SDS011;3641;49.082;8.200;2024-02-04T08:26:00;4.60;;;2.28;;
7199;SDS011;3641;49.082;8.200;2024-02-04T08:28:27;4.90;;;2.30;;
7199;SDS011;3641;49.082;8.200;2024-02-04T08:30:54;3.22;;;1.80;;
7199;SDS011;3641;49.082;8.200;2024-02-04T08:33:21;3.47;;;2.00;;
7199;SDS011;3641;49.082;8.200;2024-02-04T08:35:47;2.92;;;1.63;;
7199;SDS011;3641;49.082;8.200;2024-02-04T08:38:14;3.60;;;2.15;;
7199;SDS011;3641;49.082;8.200;2024-02-04T08:40:42;3.50;;;1.98;;
7199;SDS011;3641;49.082;8.200;2024-02-04T08:43:08;4.03;;;2.47;;
7199;SDS011;3641;49.082;8.200;2024-02-04T08:45:34;4.80;;;2.00;;
7199;SDS011;3641;49.082;8.200;2024-02-04T08:48:01;3.45;;;1.90;;
7199;SDS011;3641;49.082;8.200;2024-02-04T08:50:27;4.45;;;2.15;;
7199;SDS011;3641;49.082;8.200;2024-02-04T08:52:55;3.38;;;1.90;;
7199;SDS011;3641;49.082;8.200;2024-02-04T08:55:21;3.92;;;1.90;;
7199;SDS011;3641;49.082;8.200;2024-02-04T08:57:49;3.50;;;1.90;;
7199;SDS011;3641;49.082;8.200;2024-02-04T09:00:18;3.33;;;2.10;;
7199;SDS011;3641;49.082;8.200;2024-02-04T09:02:46;3.15;;;1.80;;
7199;SDS011;3641;49.082;8.200;2024-02-04T09:05:13;3.65;;;2.35;;
7199;SDS011;3641;49.082;8.200;2024-02-04T09:07:40;5.63;;;2.67;;
7199;SDS011;3641;49.082;8.200;2024-02-04T09:10:07;2.78;;;1.70;;
7199;SDS011;3641;49.082;8.200;2024-02-04T09:12:33;2.95;;;1.92;;
7199;SDS011;3641;49.082;8.200;2024-02-04T09:15:01;2.97;;;1.73;;
7199;SDS011;3641;49.082;8.200;2024-02-04T09:17:29;3.25;;;1.75;;
7199;SDS011;3641;49.082;8.200;2024-02-04T09:19:58;2.92;;;1.85;;
7199;SDS011;3641;49.082;8.200;2024-02-04T09:22:24;3.30;;;1.80;;
7199;SDS011;3641;49.082;8.200;2024-02-04T09:24:50;3.20;;;1.50;;
7199;SDS011;3641;49.082;8.200;2024-02-04T09:27:17;3.35;;;1.67;;
7199;SDS011;3641;49.082;8.200;2024-02-04T09:29:44;3.40;;;1.77;;
7199;SDS011;3641;49.082;8.200;2024-02-04T09:32:11;2.03;;;1.45;;
7199;SDS011;3641;49.082;8.200;2024-02-04T09:34:38;3.08;;;1.52;;
7199;SDS011;3641;49.082;8.200;2024-02-04T09:37:04;3.50;;;1.52;;
7199;SDS011;3641;49.082;8.200;2024-02-04T09:39:32;3.40;;;1.55;;
7199;SDS011;3641;49.082;8.200;2024-02-04T09:41:58;3.03;;;1.60;;
7199;SDS011;3641;49.082;8.200;2024-02-04T09:44:25;4.40;;;1.50;;
7199;SDS011;3641;49.082;8.200;2024-02-04T09:46:52;4.18;;;1.75;;
7199;SDS011;3641;49.082;8.200;2024-02-04T09:49:20;3.33;;;1.38;;
7199;SDS011;3641;49.082;8.200;2024-02-04T09:51:48;2.45;;;1.30;;
7199;SDS011;3641;49.082;8.200;2024-02-04T09:54:14;3.17;;;1.45;;
7199;SDS011;3641;49.082;8.200;2024-02-04T09:56:44;1.85;;;1.10;;
7199;SDS011;3641;49.082;8.200;2024-02-04T09:59:11;1.80;;;1.20;;
7199;SDS011;3641;49.082;8.200;2024-02-04T10:01:37;2.95;;;1.30;;
7199;SDS011;3641;49.082;8.200;2024-02-04T10:04:05;3.72;;;1.33;;
7199;SDS011;3641;49.082;8.200;2024-02-04T10:06:33;3.72;;;1.25;;
7199;SDS011;3641;49.082;8.200;2024-02-04T10:08:59;2.50;;;1.10;;
7199;SDS011;3641;49.082;8.200;2024-02-04T10:11:26;1.85;;;1.08;;
7199;SDS011;3641;49.082;8.200;2024-02-04T10:13:52;1.85;;;1.08;;
7199;SDS011;3641;49.082;8.200;2024-02-04T10:16:19;1.17;;;0.80;;
7199;SDS011;3641;49.082;8.200;2024-02-04T10:18:46;1.77;;;0.90;;
7199;SDS011;3641;49.082;8.200;2024-02-04T10:21:14;1.40;;;0.90;;
7199;SDS011;3641;49.082;8.200;2024-02-04T10:23:43;2.38;;;0.90;;
7199;SDS011;3641;49.082;8.200;2024-02-04T10:26:10;1.08;;;0.90;;
7199;SDS011;3641;49.082;8.200;2024-02-04T10:28:36;1.38;;;0.90;;
7199;SDS011;3641;49.082;8.200;2024-02-04T10:31:03;2.05;;;1.02;;
7199;SDS011;3641;49.082;8.200;2024-02-04T10:33:30;1.77;;;0.93;;
7199;SDS011;3641;49.082;8.200;2024-02-04T10:35:57;1.95;;;1.15;;
7199;SDS011;3641;49.082;8.200;2024-02-04T10:38:23;2.75;;;1.00;;
7199;SDS011;3641;49.082;8.200;2024-02-04T10:40:52;2.40;;;1.13;;
7199;SDS011;3641;49.082;8.200;2024-02-04T10:43:20;1.83;;;1.17;;
7199;SDS011;3641;49.082;8.200;2024-02-04T10:45:49;2.80;;;1.17;;
7199;SDS011;3641;49.082;8.200;2024-02-04T10:48:21;1.13;;;0.90;;
7199;SDS011;3641;49.082;8.200;2024-02-04T10:50:53;1.35;;;0.85;;
7199;SDS011;3641;49.082;8.200;2024-02-04T10:53:23;2.17;;;1.25;;
7199;SDS011;3641;49.082;8.200;2024-02-04T10:55:52;1.58;;;1.05;;
7199;SDS011;3641;49.082;8.200;2024-02-04T10:58:24;1.90;;;0.95;;
7199;SDS011;3641;49.082;8.200;2024-02-04T11:00:51;1.67;;;0.93;;
7199;SDS011;3641;49.082;8.200;2024-02-04T11:03:18;1.85;;;0.80;;
7199;SDS011;3641;49.082;8.200;2024-02-04T11:05:44;2.63;;;0.98;;
7199;SDS011;3641;49.082;8.200;2024-02-04T11:08:13;3.47;;;1.15;;
7199;SDS011;3641;49.082;8.200;2024-02-04T11:10:40;3.05;;;1.10;;
7199;SDS011;3641;49.082;8.200;2024-02-04T11:13:08;2.33;;;1.08;;
7199;SDS011;3641;49.082;8.200;2024-02-04T11:15:36;2.95;;;1.20;;
7199;SDS011;3641;49.082;8.200;2024-02-04T11:21:11;3.08;;;1.05;;
7199;SDS011;3641;49.082;8.200;2024-02-04T11:23:55;2.80;;;1.05;;
7199;SDS011;3641;49.082;8.200;2024-02-04T11:26:34;2.10;;;1.20;;
7199;SDS011;3641;49.082;8.200;2024-02-04T11:29:04;2.63;;;1.05;;
7199;SDS011;3641;49.082;8.200;2024-02-04T11:31:31;1.95;;;1.00;;
7199;SDS011;3641;49.082;8.200;2024-02-04T11:33:57;2.72;;;1.17;;
7199;SDS011;3641;49.082;8.200;2024-02-04T11:36:24;2.30;;;1.20;;
7199;SDS011;3641;49.082;8.200;2024-02-04T11:38:51;2.30;;;1.30;;
7199;SDS011;3641;49.082;8.200;2024-02-04T11:41:21;4.78;;;1.90;;
7199;SDS011;3641;49.082;8.200;2024-02-04T11:43:51;2.03;;;1.10;;
7199;SDS011;3641;49.082;8.200;2024-02-04T11:46:20;1.77;;;0.98;;
7199;SDS011;3641;49.082;8.200;2024-02-04T11:48:51;3.45;;;0.90;;
7199;SDS011;3641;49.082;8.200;2024-02-04T11:51:18;2.22;;;0.93;;
7199;SDS011;3641;49.082;8.200;2024-02-04T11:53:47;3.17;;;1.08;;
7199;SDS011;3641;49.082;8.200;2024-02-04T11:56:13;3.10;;;1.00;;
7199;SDS011;3641;49.082;8.200;2024-02-04T11:58:40;3.47;;;1.67;;
7199;SDS011;3641;49.082;8.200;2024-02-04T12:01:09;2.67;;;1.40;;
7199;SDS011;3641;49.082;8.200;2024-02-04T12:03:37;1.42;;;1.05;;
7199;SDS011;3641;49.082;8.200;2024-02-04T12:06:04;1.92;;;1.05;;
7199;SDS011;3641;49.082;8.200;2024-02-04T12:08:32;2.85;;;1.02;;
7199;SDS011;3641;49.082;8.200;2024-02-04T12:10:59;1.70;;;0.98;;
7199;SDS011;3641;49.082;8.200;2024-02-04T12:13:26;1.77;;;0.95;;
7199;SDS011;3641;49.082;8.200;2024-02-04T12:15:54;4.70;;;1.13;;
7199;SDS011;3641;49.082;8.200;2024-02-04T12:18:20;1.02;;;0.73;;
7199;SDS011;3641;49.082;8.200;2024-02-04T12:20:48;1.45;;;0.90;;
7199;SDS011;3641;49.082;8.200;2024-02-04T12:23:15;1.27;;;0.75;;
7199;SDS011;3641;49.082;8.200;2024-02-04T12:25:43;1.30;;;0.80;;
7199;SDS011;3641;49.082;8.200;2024-02-04T12:28:10;1.20;;;0.80;;
7199;SDS011;3641;49.082;8.200;2024-02-04T12:30:36;1.63;;;0.85;;
7199;SDS011;3641;49.082;8.200;2024-02-04T12:33:03;1.45;;;0.80;;
7199;SDS011;3641;49.082;8.200;2024-02-04T12:35:32;1.38;;;0.80;;
7199;SDS011;3641;49.082;8.200;2024-02-04T12:38:00;2.75;;;1.05;;
7199;SDS011;3641;49.082;8.200;2024-02-04T12:40:28;2.60;;;1.10;;
7199;SDS011;3641;49.082;8.200;2024-02-04T12:42:55;1.75;;;0.85;;
7199;SDS011;3641;49.082;8.200;2024-02-04T12:45:22;2.60;;;1.20;;
7199;SDS011;3641;49.082;8.200;2024-02-04T12:47:49;2.30;;;0.98;;
7199;SDS011;3641;49.082;8.200;2024-02-04T12:50:16;2.13;;;1.27;;
7199;SDS011;3641;49.082;8.200;2024-02-04T12:52:44;1.25;;;0.88;;
7199;SDS011;3641;49.082;8.200;2024-02-04T12:55:20;1.83;;;1.00;;
7199;SDS011;3641;49.082;8.200;2024-02-04T12:57:48;2.92;;;1.10;;
7199;SDS011;3641;49.082;8.200;2024-02-04T13:00:17;2.70;;;1.00;;
7199;SDS011;3641;49.082;8.200;2024-02-04T13:02:44;1.23;;;1.00;;
7199;SDS011;3641;49.082;8.200;2024-02-04T13:05:21;1.50;;;0.90;;
7199;SDS011;3641;49.082;8.200;2024-02-04T13:07:50;3.45;;;1.10;;
7199;SDS011;3641;49.082;8.200;2024-02-04T13:10:21;1.30;;;0.95;;
7199;SDS011;3641;49.082;8.200;2024-02-04T13:12:57;2.60;;;1.35;;
7199;SDS011;3641;49.082;8.200;2024-02-04T13:15:25;2.45;;;1.10;;
7199;SDS011;3641;49.082;8.200;2024-02-04T13:17:51;3.30;;;1.13;;
7199;SDS011;3641;49.082;8.200;2024-02-04T13:20:18;1.63;;;1.10;;
7199;SDS011;3641;49.082;8.200;2024-02-04T13:22:44;1.60;;;1.20;;
7199;SDS011;3641;49.082;8.200;2024-02-04T13:25:11;1.98;;;1.10;;
7199;SDS011;3641;49.082;8.200;2024-02-04T13:27:38;2.65;;;1.10;;
7199;SDS011;3641;49.082;8.200;2024-02-04T13:30:06;3.08;;;1.40;;
7199;SDS011;3641;49.082;8.200;2024-02-04T13:32:37;2.97;;;1.20;;
7199;SDS011;3641;49.082;8.200;2024-02-04T13:35:03;2.85;;;1.20;;
7199;SDS011;3641;49.082;8.200;2024-02-04T13:37:31;1.83;;;0.88;;
7199;SDS011;3641;49.082;8.200;2024-02-04T13:39:57;2.92;;;1.42;;
7199;SDS011;3641;49.082;8.200;2024-02-04T13:42:24;2.55;;;1.10;;
7199;SDS011;3641;49.082;8.200;2024-02-04T13:44:51;2.72;;;0.90;;
7199;SDS011;3641;49.082;8.200;2024-02-04T13:47:18;4.00;;;1.30;;
7199;SDS011;3641;49.082;8.200;2024-02-04T13:49:44;4.45;;;1.20;;
7199;SDS011;3641;49.082;8.200;2024-02-04T13:52:11;3.60;;;1.20;;
7199;SDS011;3641;49.082;8.200;2024-02-04T13:54:37;1.90;;;1.23;;
7199;SDS011;3641;49.082;8.200;2024-02-04T13:57:04;2.00;;;1.10;;
7199;SDS011;3641;49.082;8.200;2024-02-04T13:59:31;1.98;;;1.00;;
7199;SDS011;3641;49.082;8.200;2024-02-04T14:01:58;1.83;;;1.00;;
7199;SDS011;3641;49.082;8.200;2024-02-04T14:04:25;1.77;;;1.00;;
7199;SDS011;3641;49.082;8.200;2024-02-04T14:06:51;2.60;;;1.30;;
7199;SDS011;3641;49.082;8.200;2024-02-04T14:09:18;2.25;;;1.13;;
7199;SDS011;3641;49.082;8.200;2024-02-04T14:11:44;3.20;;;1.70;;
7199;SDS011;3641;49.082;8.200;2024-02-04T14:14:11;2.15;;;1.30;;
7199;SDS011;3641;49.082;8.200;2024-02-04T14:16:37;2.53;;;1.35;;
7199;SDS011;3641;49.082;8.200;2024-02-04T14:19:05;3.50;;;1.30;;
7199;SDS011;3641;49.082;8.200;2024-02-04T14:21:35;3.40;;;1.30;;
7199;SDS011;3641;49.082;8.200;2024-02-04T14:24:04;3.15;;;1.48;;
7199;SDS011;3641;49.082;8.200;2024-02-04T14:26:31;3.65;;;1.40;;
7199;SDS011;3641;49.082;8.200;2024-02-04T14:28:57;3.90;;;1.90;;
7199;SDS011;3641;49.082;8.200;2024-02-04T14:31:24;5.28;;;1.70;;
7199;SDS011;3641;49.082;8.200;2024-02-04T14:33:50;2.60;;;1.50;;
7199;SDS011;3641;49.082;8.200;2024-02-04T14:36:18;3.20;;;1.70;;
7199;SDS011;3641;49.082;8.200;2024-02-04T14:38:45;4.82;;;2.33;;
7199;SDS011;3641;49.082;8.200;2024-02-04T14:41:11;4.68;;;2.08;;
7199;SDS011;3641;49.082;8.200;2024-02-04T14:43:38;2.88;;;1.77;;
7199;SDS011;3641;49.082;8.200;2024-02-04T14:46:04;4.57;;;1.95;;
7199;SDS011;3641;49.082;8.200;2024-02-04T14:48:33;3.13;;;1.65;;
7199;SDS011;3641;49.082;8.200;2024-02-04T14:50:59;4.35;;;1.90;;
7199;SDS011;3641;49.082;8.200;2024-02-04T14:53:27;5.30;;;2.10;;
7199;SDS011;3641;49.082;8.200;2024-02-04T14:55:53;3.13;;;1.88;;
7199;SDS011;3641;49.082;8.200;2024-02-04T14:58:21;4.05;;;2.10;;
7199;SDS011;3641;49.082;8.200;2024-02-04T15:00:47;4.68;;;2.28;;
7199;SDS011;3641;49.082;8.200;2024-02-04T15:03:14;4.22;;;2.08;;
7199;SDS011;3641;49.082;8.200;2024-02-04T15:05:41;4.03;;;1.55;;
7199;SDS011;3641;49.082;8.200;2024-02-04T15:08:07;3.63;;;1.95;;
7199;SDS011;3641;49.082;8.200;2024-02-04T15:10:35;2.47;;;1.50;;
7199;SDS011;3641;49.082;8.200;2024-02-04T15:13:02;3.28;;;1.80;;
7199;SDS011;3641;49.082;8.200;2024-02-04T15:15:29;4.40;;;1.85;;
7199;SDS011;3641;49.082;8.200;2024-02-04T15:17:56;4.00;;;2.03;;